sensor_id;sensor_type;location;lat;lon;timestamp;P1;durP1;ratioP1;P2;durP2;ratioP2
42420;SDS011;28063;48.140;11.588;2022-10-26T00:02:19;2.25;;;1.38;;
42420;SDS011;28063;48.140;11.588;2022-10-26T00:04:45;1.75;;;1.40;;
42420;SDS011;28063;48.140;11.588;2022-10-26T00:07:10;2.25;;;1.52;;
42420;SDS011;28063;48.140;11.588;2022-10-26T00:09:36;1.25;;;1.15;;
42420;SDS011;28063;48.140;11.588;2022-10-26T00:12:02;3.75;;;1.50;;
42420;SDS011;28063;48.140;11.588;2022-10-26T00:14:28;2.33;;;1.48;;
42420;SDS011;28063;48.140;11.588;2022-10-26T00:16:53;2.22;;;1.30;;
42420;SDS011;28063;48.140;11.588;2022-10-26T00:19:19;1.77;;;1.15;;
42420;SDS011;28063;48.140;11.588;2022-10-26T00:21:45;2.13;;;1.42;;
42420;SDS011;28063;48.140;11.588;2022-10-26T00:24:10;2.30;;;1.40;;
42420;SDS011;28063;48.140;11.588;2022-10-26T00:26:37;1.45;;;1.10;;
42420;SDS011;28063;48.140;11.588;2022-10-26T00:29:03;1.70;;;1.10;;
42420;SDS011;28063;48.140;11.588;2022-10-26T00:31:30;1.40;;;0.82;;
42420;SDS011;28063;48.140;11.588;2022-10-26T00:33:55;1.30;;;1.10;;
42420;SDS011;28063;48.140;11.588;2022-10-26T00:36:22;2.28;;;1.50;;
42420;SDS011;28063;48.140;11.588;2022-10-26T00:38:49;1.40;;;1.20;;
42420;SDS011;28063;48.140;11.588;2022-10-26T00:41:16;1.15;;;1.00;;
42420;SDS011;28063;48.140;11.588;2022-10-26T00:43:44;4.60;;;1.40;;
42420;SDS011;28063;48.140;11.588;2022-10-26T00:46:17;2.03;;;1.65;;
42420;SDS011;28063;48.140;11.588;2022-10-26T00:48:51;2.70;;;1.15;;
42420;SDS011;28063;48.140;11.588;2022-10-26T00:51:28;2.45;;;1.10;;
42420;SDS011;28063;48.140;11.588;2022-10-26T00:53:58;3.63;;;1.30;;
42420;SDS011;28063;48.140;11.588;2022-10-26T00:56:27;2.05;;;1.00;;
42420;SDS011;28063;48.140;11.588;2022-10-26T00:58:54;1.38;;;0.90;;
42420;SDS011;28063;48.140;11.588;2022-10-26T01:01:24;1.15;;;0.80;;
42420;SDS011;28063;48.140;11.588;2022-10-26T01:03:49;0.80;;;0.68;;
42420;SDS011;28063;48.140;11.588;2022-10-26T01:06:15;3.42;;;1.15;;
42420;SDS011;28063;48.140;11.588;2022-10-26T01:08:41;1.35;;;1.20;;
42420;SDS011;28063;48.140;11.588;2022-10-26T01:11:08;0.82;;;0.70;;
42420;SDS011;28063;48.140;11.588;2022-10-26T01:13:34;1.52;;;0.90;;
42420;SDS011;28063;48.140;11.588;2022-10-26T01:21:43;1.88;;;1.10;;
42420;SDS011;28063;48.140;11.588;2022-10-26T01:27:09;1.30;;;1.17;;
42420;SDS011;28063;48.140;11.588;2022-10-26T01:30:20;2.92;;;1.50;;
42420;SDS011;28063;48.140;11.588;2022-10-26T01:36:20;1.70;;;1.20;;
42420;SDS011;28063;48.140;11.588;2022-10-26T01:39:11;1.58;;;1.00;;
42420;SDS011;28063;48.140;11.588;2022-10-26T01:46:54;1.17;;;1.08;;
42420;SDS011;28063;48.140;11.588;2022-10-26T01:49:24;1.33;;;1.02;;
42420;SDS011;28063;48.140;11.588;2022-10-26T01:51:53;1.27;;;0.80;;
42420;SDS011;28063;48.140;11.588;2022-10-26T01:54:19;1.48;;;1.02;;
42420;SDS011;28063;48.140;11.588;2022-10-26T01:56:49;3.00;;;1.02;;
42420;SDS011;28063;48.140;11.588;2022-10-26T01:59:24;2.15;;;0.85;;
42420;SDS011;28063;48.140;11.588;2022-10-26T02:15:16;2.83;;;1.42;;
42420;SDS011;28063;48.140;11.588;2022-10-26T02:18:06;2.08;;;0.75;;
42420;SDS011;28063;48.140;11.588;2022-10-26T02:20:45;2.08;;;1.20;;
42420;SDS011;28063;48.140;11.588;2022-10-26T02:23:17;2.40;;;1.02;;
42420;SDS011;28063;48.140;11.588;2022-10-26T02:25:46;2.75;;;1.17;;
42420;SDS011;28063;48.140;11.588;2022-10-26T02:28:19;1.30;;;1.13;;
42420;SDS011;28063;48.140;11.588;2022-10-26T02:30:49;2.83;;;1.00;;
42420;SDS011;28063;48.140;11.588;2022-10-26T02:33:19;1.85;;;1.00;;
42420;SDS011;28063;48.140;11.588;2022-10-26T02:35:49;1.67;;;1.00;;
42420;SDS011;28063;48.140;11.588;2022-10-26T02:38:18;0.80;;;0.80;;
42420;SDS011;28063;48.140;11.588;2022-10-26T02:40:45;3.15;;;1.23;;
42420;SDS011;28063;48.140;11.588;2022-10-26T02:43:13;0.90;;;0.70;;
42420;SDS011;28063;48.140;11.588;2022-10-26T02:48:32;1.70;;;0.98;;
42420;SDS011;28063;48.140;11.588;2022-10-26T02:51:11;1.48;;;0.90;;
42420;SDS011;28063;48.140;11.588;2022-10-26T02:53:45;1.30;;;1.10;;
42420;SDS011;28063;48.140;11.588;2022-10-26T02:56:24;3.50;;;1.10;;
42420;SDS011;28063;48.140;11.588;2022-10-26T02:58:57;1.00;;;0.90;;
42420;SDS011;28063;48.140;11.588;2022-10-26T03:01:26;0.80;;;0.73;;
42420;SDS011;28063;48.140;11.588;2022-10-26T03:03:57;2.45;;;1.00;;
42420;SDS011;28063;48.140;11.588;2022-10-26T03:06:23;1.35;;;1.05;;
42420;SDS011;28063;48.140;11.588;2022-10-26T03:08:50;1.42;;;0.77;;
42420;SDS011;28063;48.140;11.588;2022-10-26T03:11:16;1.35;;;1.10;;
42420;SDS011;28063;48.140;11.588;2022-10-26T03:13:42;2.15;;;1.00;;
42420;SDS011;28063;48.140;11.588;2022-10-26T03:16:08;3.28;;;1.35;;
42420;SDS011;28063;48.140;11.588;2022-10-26T03:18:34;7.13;;;1.50;;
42420;SDS011;28063;48.140;11.588;2022-10-26T03:21:00;3.42;;;1.13;;
42420;SDS011;28063;48.140;11.588;2022-10-26T03:23:25;2.22;;;1.20;;
42420;SDS011;28063;48.140;11.588;2022-10-26T03:25:55;3.92;;;1.20;;
42420;SDS011;28063;48.140;11.588;2022-10-26T03:28:21;0.98;;;0.90;;
42420;SDS011;28063;48.140;11.588;2022-10-26T03:30:46;0.95;;;0.85;;
42420;SDS011;28063;48.140;11.588;2022-10-26T03:33:12;1.63;;;1.00;;
42420;SDS011;28063;48.140;11.588;2022-10-26T03:35:38;1.60;;;1.20;;
42420;SDS011;28063;48.140;11.588;2022-10-26T03:38:04;1.23;;;0.90;;
42420;SDS011;28063;48.140;11.588;2022-10-26T03:40:29;1.73;;;0.80;;
42420;SDS011;28063;48.140;11.588;2022-10-26T03:42:55;1.90;;;0.80;;
42420;SDS011;28063;48.140;11.588;2022-10-26T03:45:20;0.73;;;0.73;;
42420;SDS011;28063;48.140;11.588;2022-10-26T03:47:46;0.82;;;0.77;;
42420;SDS011;28063;48.140;11.588;2022-10-26T03:50:13;1.17;;;0.70;;
42420;SDS011;28063;48.140;11.588;2022-10-26T03:52:42;0.73;;;0.68;;
42420;SDS011;28063;48.140;11.588;2022-10-26T03:55:08;0.80;;;0.70;;
42420;SDS011;28063;48.140;11.588;2022-10-26T03:57:38;3.05;;;0.77;;
42420;SDS011;28063;48.140;11.588;2022-10-26T04:00:05;1.52;;;1.10;;
42420;SDS011;28063;48.140;11.588;2022-10-26T04:02:31;0.98;;;0.80;;
42420;SDS011;28063;48.140;11.588;2022-10-26T04:04:57;1.33;;;0.70;;
42420;SDS011;28063;48.140;11.588;2022-10-26T04:07:23;1.60;;;0.80;;
42420;SDS011;28063;48.140;11.588;2022-10-26T04:09:48;1.33;;;0.77;;
42420;SDS011;28063;48.140;11.588;2022-10-26T04:12:14;0.82;;;0.70;;
42420;SDS011;28063;48.140;11.588;2022-10-26T04:14:39;0.57;;;0.57;;
42420;SDS011;28063;48.140;11.588;2022-10-26T04:17:05;0.65;;;0.65;;
42420;SDS011;28063;48.140;11.588;2022-10-26T04:19:30;3.78;;;0.85;;
42420;SDS011;28063;48.140;11.588;2022-10-26T04:21:56;1.80;;;1.00;;
42420;SDS011;28063;48.140;11.588;2022-10-26T04:24:22;1.85;;;0.70;;
42420;SDS011;28063;48.140;11.588;2022-10-26T04:26:47;0.70;;;0.68;;
42420;SDS011;28063;48.140;11.588;2022-10-26T04:29:13;3.15;;;0.82;;
42420;SDS011;28063;48.140;11.588;2022-10-26T04:31:38;0.80;;;0.80;;
42420;SDS011;28063;48.140;11.588;2022-10-26T04:34:05;0.60;;;0.60;;
42420;SDS011;28063;48.140;11.588;2022-10-26T04:36:31;1.90;;;0.90;;
42420;SDS011;28063;48.140;11.588;2022-10-26T04:38:58;0.50;;;0.47;;
42420;SDS011;28063;48.140;11.588;2022-10-26T04:41:24;0.55;;;0.50;;
42420;SDS011;28063;48.140;11.588;2022-10-26T04:43:49;0.70;;;0.52;;
42420;SDS011;28063;48.140;11.588;2022-10-26T04:46:15;1.00;;;0.73;;
42420;SDS011;28063;48.140;11.588;2022-10-26T04:48:40;1.20;;;0.77;;
42420;SDS011;28063;48.140;11.588;2022-10-26T04:51:06;1.45;;;0.80;;
42420;SDS011;28063;48.140;11.588;2022-10-26T04:53:32;0.70;;;0.70;;
42420;SDS011;28063;48.140;11.588;2022-10-26T04:55:58;1.63;;;1.00;;
42420;SDS011;28063;48.140;11.588;2022-10-26T04:58:25;2.63;;;2.15;;
42420;SDS011;28063;48.140;11.588;2022-10-26T05:00:52;1.73;;;1.60;;
42420;SDS011;28063;48.140;11.588;2022-10-26T05:03:17;1.88;;;1.38;;
42420;SDS011;28063;48.140;11.588;2022-10-26T05:05:43;3.10;;;1.15;;
42420;SDS011;28063;48.140;11.588;2022-10-26T05:08:09;2.28;;;1.20;;
42420;SDS011;28063;48.140;11.588;2022-10-26T05:10:35;8.77;;;1.67;;
42420;SDS011;28063;48.140;11.588;2022-10-26T05:13:00;3.42;;;1.60;;
42420;SDS011;28063;48.140;11.588;2022-10-26T05:15:27;2.53;;;1.48;;
42420;SDS011;28063;48.140;11.588;2022-10-26T05:17:56;3.38;;;1.77;;
42420;SDS011;28063;48.140;11.588;2022-10-26T05:20:28;5.55;;;1.40;;
42420;SDS011;28063;48.140;11.588;2022-10-26T05:22:58;1.77;;;1.20;;
42420;SDS011;28063;48.140;11.588;2022-10-26T05:25:26;2.85;;;1.40;;
42420;SDS011;28063;48.140;11.588;2022-10-26T05:27:57;2.85;;;1.00;;
42420;SDS011;28063;48.140;11.588;2022-10-26T05:30:23;1.30;;;0.85;;
42420;SDS011;28063;48.140;11.588;2022-10-26T05:32:53;1.48;;;1.17;;
42420;SDS011;28063;48.140;11.588;2022-10-26T05:35:19;2.53;;;1.05;;
42420;SDS011;28063;48.140;11.588;2022-10-26T05:37:45;1.63;;;0.93;;
42420;SDS011;28063;48.140;11.588;2022-10-26T05:40:11;1.30;;;1.20;;
42420;SDS011;28063;48.140;11.588;2022-10-26T05:42:37;3.25;;;1.10;;
42420;SDS011;28063;48.140;11.588;2022-10-26T05:45:05;3.38;;;1.55;;
42420;SDS011;28063;48.140;11.588;2022-10-26T05:47:31;4.93;;;1.75;;
42420;SDS011;28063;48.140;11.588;2022-10-26T05:49:56;4.07;;;1.60;;
42420;SDS011;28063;48.140;11.588;2022-10-26T05:52:22;8.57;;;1.63;;
42420;SDS011;28063;48.140;11.588;2022-10-26T05:54:48;1.55;;;1.35;;
42420;SDS011;28063;48.140;11.588;2022-10-26T05:57:14;2.90;;;1.80;;
42420;SDS011;28063;48.140;11.588;2022-10-26T05:59:40;2.78;;;1.38;;
42420;SDS011;28063;48.140;11.588;2022-10-26T06:02:23;1.98;;;1.30;;
42420;SDS011;28063;48.140;11.588;2022-10-26T06:05:03;3.90;;;1.60;;
42420;SDS011;28063;48.140;11.588;2022-10-26T06:07:29;3.97;;;1.33;;
42420;SDS011;28063;48.140;11.588;2022-10-26T06:09:57;4.72;;;1.83;;
42420;SDS011;28063;48.140;11.588;2022-10-26T06:12:23;6.28;;;1.85;;
42420;SDS011;28063;48.140;11.588;2022-10-26T06:14:50;1.52;;;1.20;;
42420;SDS011;28063;48.140;11.588;2022-10-26T06:20:44;3.90;;;1.73;;
42420;SDS011;28063;48.140;11.588;2022-10-26T06:23:51;3.20;;;1.90;;
42420;SDS011;28063;48.140;11.588;2022-10-26T06:29:02;1.58;;;1.30;;
42420;SDS011;28063;48.140;11.588;2022-10-26T06:31:30;1.55;;;1.20;;
42420;SDS011;28063;48.140;11.588;2022-10-26T06:33:57;2.38;;;1.30;;
42420;SDS011;28063;48.140;11.588;2022-10-26T06:36:24;2.65;;;1.33;;
42420;SDS011;28063;48.140;11.588;2022-10-26T06:38:53;1.80;;;1.20;;
42420;SDS011;28063;48.140;11.588;2022-10-26T06:41:27;1.83;;;1.40;;
42420;SDS011;28063;48.140;11.588;2022-10-26T06:43:56;1.52;;;1.35;;
42420;SDS011;28063;48.140;11.588;2022-10-26T06:51:52;2.28;;;1.20;;
42420;SDS011;28063;48.140;11.588;2022-10-26T06:56:55;2.08;;;1.40;;
42420;SDS011;28063;48.140;11.588;2022-10-26T06:59:44;3.20;;;1.85;;
42420;SDS011;28063;48.140;11.588;2022-10-26T07:02:20;3.83;;;2.03;;
42420;SDS011;28063;48.140;11.588;2022-10-26T07:04:46;1.77;;;1.67;;
42420;SDS011;28063;48.140;11.588;2022-10-26T07:07:21;3.35;;;1.67;;
42420;SDS011;28063;48.140;11.588;2022-10-26T07:09:49;2.05;;;1.45;;
42420;SDS011;28063;48.140;11.588;2022-10-26T07:12:15;2.15;;;1.13;;
42420;SDS011;28063;48.140;11.588;2022-10-26T07:14:41;3.55;;;1.88;;
42420;SDS011;28063;48.140;11.588;2022-10-26T07:17:07;6.50;;;2.00;;
42420;SDS011;28063;48.140;11.588;2022-10-26T07:19:33;4.25;;;1.77;;
42420;SDS011;28063;48.140;11.588;2022-10-26T07:21:59;2.70;;;1.73;;
42420;SDS011;28063;48.140;11.588;2022-10-26T07:24:26;4.65;;;1.80;;
42420;SDS011;28063;48.140;11.588;2022-10-26T07:26:55;3.47;;;1.58;;
42420;SDS011;28063;48.140;11.588;2022-10-26T07:29:22;3.22;;;1.38;;
42420;SDS011;28063;48.140;11.588;2022-10-26T07:31:49;4.03;;;1.77;;
42420;SDS011;28063;48.140;11.588;2022-10-26T07:34:15;5.55;;;1.95;;
42420;SDS011;28063;48.140;11.588;2022-10-26T07:36:40;3.65;;;1.73;;
42420;SDS011;28063;48.140;11.588;2022-10-26T07:39:06;5.32;;;1.73;;
42420;SDS011;28063;48.140;11.588;2022-10-26T07:41:32;2.90;;;1.33;;
42420;SDS011;28063;48.140;11.588;2022-10-26T07:43:58;2.75;;;1.38;;
42420;SDS011;28063;48.140;11.588;2022-10-26T07:46:24;3.75;;;1.67;;
42420;SDS011;28063;48.140;11.588;2022-10-26T07:48:50;3.15;;;1.50;;
42420;SDS011;28063;48.140;11.588;2022-10-26T07:51:15;3.67;;;1.38;;
42420;SDS011;28063;48.140;11.588;2022-10-26T07:53:41;4.78;;;1.40;;
42420;SDS011;28063;48.140;11.588;2022-10-26T07:56:08;2.53;;;1.10;;
42420;SDS011;28063;48.140;11.588;2022-10-26T07:58:34;3.60;;;1.13;;
42420;SDS011;28063;48.140;11.588;2022-10-26T08:01:07;4.53;;;1.48;;
42420;SDS011;28063;48.140;11.588;2022-10-26T08:03:35;2.75;;;1.23;;
42420;SDS011;28063;48.140;11.588;2022-10-26T08:06:01;2.15;;;1.17;;
42420;SDS011;28063;48.140;11.588;2022-10-26T08:08:29;1.52;;;0.93;;
42420;SDS011;28063;48.140;11.588;2022-10-26T08:10:55;2.70;;;1.42;;
42420;SDS011;28063;48.140;11.588;2022-10-26T08:13:21;1.20;;;0.98;;
42420;SDS011;28063;48.140;11.588;2022-10-26T08:15:47;2.05;;;1.15;;
42420;SDS011;28063;48.140;11.588;2022-10-26T08:18:13;1.20;;;0.70;;
42420;SDS011;28063;48.140;11.588;2022-10-26T08:20:39;1.42;;;0.88;;
42420;SDS011;28063;48.140;11.588;2022-10-26T08:23:05;2.13;;;0.80;;
42420;SDS011;28063;48.140;11.588;2022-10-26T08:25:33;1.92;;;1.00;;
42420;SDS011;28063;48.140;11.588;2022-10-26T08:28:02;4.28;;;1.05;;
42420;SDS011;28063;48.140;11.588;2022-10-26T08:30:31;1.33;;;1.08;;
42420;SDS011;28063;48.140;11.588;2022-10-26T08:33:07;1.73;;;0.85;;
42420;SDS011;28063;48.140;11.588;2022-10-26T08:35:35;3.42;;;1.10;;
42420;SDS011;28063;48.140;11.588;2022-10-26T08:38:02;3.30;;;1.45;;
42420;SDS011;28063;48.140;11.588;2022-10-26T08:40:31;1.40;;;0.90;;
42420;SDS011;28063;48.140;11.588;2022-10-26T08:45:48;1.27;;;1.15;;
42420;SDS011;28063;48.140;11.588;2022-10-26T08:48:49;1.33;;;1.00;;
42420;SDS011;28063;48.140;11.588;2022-10-26T08:51:25;0.80;;;0.80;;
42420;SDS011;28063;48.140;11.588;2022-10-26T08:54:13;1.30;;;0.90;;
42420;SDS011;28063;48.140;11.588;2022-10-26T08:57:00;1.55;;;1.02;;
42420;SDS011;28063;48.140;11.588;2022-10-26T08:59:42;5.07;;;1.17;;
42420;SDS011;28063;48.140;11.588;2022-10-26T09:02:16;2.25;;;1.00;;
42420;SDS011;28063;48.140;11.588;2022-10-26T09:04:42;0.70;;;0.70;;
42420;SDS011;28063;48.140;11.588;2022-10-26T09:07:24;1.92;;;0.98;;
42420;SDS011;28063;48.140;11.588;2022-10-26T09:13:04;2.05;;;1.15;;
42420;SDS011;28063;48.140;11.588;2022-10-26T09:26:57;2.10;;;1.10;;
42420;SDS011;28063;48.140;11.588;2022-10-26T09:29:44;0.93;;;0.63;;
42420;SDS011;28063;48.140;11.588;2022-10-26T09:32:17;1.33;;;1.00;;
42420;SDS011;28063;48.140;11.588;2022-10-26T09:34:46;1.92;;;0.57;;
42420;SDS011;28063;48.140;11.588;2022-10-26T09:37:28;2.33;;;0.85;;
42420;SDS011;28063;48.140;11.588;2022-10-26T09:40:04;2.10;;;0.93;;
42420;SDS011;28063;48.140;11.588;2022-10-26T09:42:42;2.33;;;1.33;;
42420;SDS011;28063;48.140;11.588;2022-10-26T09:45:17;2.35;;;0.85;;
42420;SDS011;28063;48.140;11.588;2022-10-26T09:50:34;1.67;;;1.02;;
42420;SDS011;28063;48.140;11.588;2022-10-26T09:53:01;0.98;;;0.90;;
42420;SDS011;28063;48.140;11.588;2022-10-26T09:55:28;1.58;;;0.73;;
42420;SDS011;28063;48.140;11.588;2022-10-26T09:57:56;1.58;;;0.65;;
42420;SDS011;28063;48.140;11.588;2022-10-26T10:00:25;1.83;;;1.00;;
42420;SDS011;28063;48.140;11.588;2022-10-26T10:02:56;2.08;;;1.05;;
42420;SDS011;28063;48.140;11.588;2022-10-26T10:08:17;3.17;;;0.90;;
42420;SDS011;28063;48.140;11.588;2022-10-26T10:13:34;4.30;;;1.42;;
42420;SDS011;28063;48.140;11.588;2022-10-26T10:16:21;3.25;;;1.48;;
42420;SDS011;28063;48.140;11.588;2022-10-26T10:18:54;5.57;;;1.60;;
42420;SDS011;28063;48.140;11.588;2022-10-26T10:21:38;6.45;;;1.40;;
42420;SDS011;28063;48.140;11.588;2022-10-26T10:26:56;1.65;;;1.08;;
42420;SDS011;28063;48.140;11.588;2022-10-26T10:29:30;3.35;;;0.95;;
42420;SDS011;28063;48.140;11.588;2022-10-26T10:32:01;2.70;;;1.00;;
42420;SDS011;28063;48.140;11.588;2022-10-26T10:34:31;2.67;;;1.10;;
42420;SDS011;28063;48.140;11.588;2022-10-26T10:36:57;2.30;;;1.63;;
42420;SDS011;28063;48.140;11.588;2022-10-26T10:41:59;5.97;;;1.58;;
42420;SDS011;28063;48.140;11.588;2022-10-26T10:44:27;3.00;;;1.20;;
42420;SDS011;28063;48.140;11.588;2022-10-26T10:46:59;5.07;;;1.65;;
42420;SDS011;28063;48.140;11.588;2022-10-26T10:49:26;4.00;;;1.45;;
42420;SDS011;28063;48.140;11.588;2022-10-26T10:51:54;3.95;;;1.60;;
42420;SDS011;28063;48.140;11.588;2022-10-26T10:54:31;3.90;;;1.50;;
42420;SDS011;28063;48.140;11.588;2022-10-26T11:02:29;4.55;;;1.80;;
42420;SDS011;28063;48.140;11.588;2022-10-26T11:10:57;3.60;;;1.90;;
42420;SDS011;28063;48.140;11.588;2022-10-26T11:13:34;5.85;;;1.92;;
42420;SDS011;28063;48.140;11.588;2022-10-26T11:16:05;7.45;;;1.73;;
42420;SDS011;28063;48.140;11.588;2022-10-26T11:18:38;4.72;;;2.08;;
42420;SDS011;28063;48.140;11.588;2022-10-26T11:21:22;7.63;;;2.10;;
42420;SDS011;28063;48.140;11.588;2022-10-26T11:26:46;4.10;;;1.70;;
42420;SDS011;28063;48.140;11.588;2022-10-26T11:29:25;5.22;;;1.88;;
42420;SDS011;28063;48.140;11.588;2022-10-26T11:32:10;6.10;;;1.80;;
42420;SDS011;28063;48.140;11.588;2022-10-26T11:37:45;7.15;;;2.00;;
42420;SDS011;28063;48.140;11.588;2022-10-26T11:40:26;5.20;;;1.85;;
42420;SDS011;28063;48.140;11.588;2022-10-26T11:43:02;6.45;;;1.98;;
42420;SDS011;28063;48.140;11.588;2022-10-26T11:45:40;5.40;;;1.73;;
42420;SDS011;28063;48.140;11.588;2022-10-26T11:50:52;8.05;;;1.77;;
42420;SDS011;28063;48.140;11.588;2022-10-26T11:53:26;7.35;;;2.33;;
42420;SDS011;28063;48.140;11.588;2022-10-26T11:56:02;4.10;;;2.17;;
42420;SDS011;28063;48.140;11.588;2022-10-26T11:58:35;8.65;;;2.80;;
42420;SDS011;28063;48.140;11.588;2022-10-26T12:01:03;5.85;;;1.65;;
42420;SDS011;28063;48.140;11.588;2022-10-26T12:03:38;5.10;;;1.60;;
42420;SDS011;28063;48.140;11.588;2022-10-26T12:06:10;2.85;;;1.77;;
42420;SDS011;28063;48.140;11.588;2022-10-26T12:08:39;6.70;;;2.00;;
42420;SDS011;28063;48.140;11.588;2022-10-26T12:11:41;9.40;;;2.00;;
42420;SDS011;28063;48.140;11.588;2022-10-26T12:16:56;8.40;;;1.75;;
42420;SDS011;28063;48.140;11.588;2022-10-26T12:22:58;6.47;;;2.33;;
42420;SDS011;28063;48.140;11.588;2022-10-26T12:25:24;7.30;;;2.30;;
42420;SDS011;28063;48.140;11.588;2022-10-26T12:27:51;5.45;;;1.70;;
42420;SDS011;28063;48.140;11.588;2022-10-26T12:33:47;6.43;;;2.40;;
42420;SDS011;28063;48.140;11.588;2022-10-26T13:00:48;8.68;;;1.67;;
42420;SDS011;28063;48.140;11.588;2022-10-26T13:08:45;13.35;;;2.72;;
42420;SDS011;28063;48.140;11.588;2022-10-26T13:13:56;10.80;;;2.97;;
42420;SDS011;28063;48.140;11.588;2022-10-26T13:16:26;5.53;;;2.22;;
42420;SDS011;28063;48.140;11.588;2022-10-26T13:18:53;16.10;;;2.50;;
42420;SDS011;28063;48.140;11.588;2022-10-26T13:21:20;6.65;;;2.55;;
42420;SDS011;28063;48.140;11.588;2022-10-26T13:28:51;5.75;;;2.55;;
42420;SDS011;28063;48.140;11.588;2022-10-26T13:34:04;12.35;;;2.90;;
42420;SDS011;28063;48.140;11.588;2022-10-26T13:39:08;12.25;;;2.10;;
42420;SDS011;28063;48.140;11.588;2022-10-26T13:41:55;8.95;;;2.10;;
42420;SDS011;28063;48.140;11.588;2022-10-26T13:47:03;8.77;;;2.03;;
42420;SDS011;28063;48.140;11.588;2022-10-26T13:49:37;6.22;;;2.22;;
42420;SDS011;28063;48.140;11.588;2022-10-26T13:52:05;8.20;;;2.20;;
42420;SDS011;28063;48.140;11.588;2022-10-26T13:54:43;7.28;;;1.83;;
42420;SDS011;28063;48.140;11.588;2022-10-26T13:57:20;11.63;;;2.30;;
42420;SDS011;28063;48.140;11.588;2022-10-26T13:59:52;9.35;;;2.17;;
42420;SDS011;28063;48.140;11.588;2022-10-26T14:02:24;12.98;;;2.78;;
42420;SDS011;28063;48.140;11.588;2022-10-26T14:05:02;7.40;;;2.30;;
42420;SDS011;28063;48.140;11.588;2022-10-26T14:07:46;13.48;;;2.08;;
42420;SDS011;28063;48.140;11.588;2022-10-26T14:13:07;6.30;;;1.90;;
42420;SDS011;28063;48.140;11.588;2022-10-26T14:15:37;5.43;;;1.97;;
42420;SDS011;28063;48.140;11.588;2022-10-26T14:18:17;7.45;;;2.05;;
42420;SDS011;28063;48.140;11.588;2022-10-26T14:21:01;8.88;;;2.65;;
42420;SDS011;28063;48.140;11.588;2022-10-26T14:23:47;6.78;;;1.90;;
42420;SDS011;28063;48.140;11.588;2022-10-26T14:28:55;6.88;;;1.77;;
42420;SDS011;28063;48.140;11.588;2022-10-26T14:33:51;8.05;;;2.55;;
42420;SDS011;28063;48.140;11.588;2022-10-26T14:36:18;9.00;;;2.00;;
42420;SDS011;28063;48.140;11.588;2022-10-26T14:38:48;7.97;;;2.30;;
42420;SDS011;28063;48.140;11.588;2022-10-26T14:41:18;6.20;;;2.00;;
42420;SDS011;28063;48.140;11.588;2022-10-26T14:43:46;3.30;;;1.65;;
42420;SDS011;28063;48.140;11.588;2022-10-26T14:46:15;9.30;;;2.17;;
42420;SDS011;28063;48.140;11.588;2022-10-26T14:48:50;7.63;;;2.17;;
42420;SDS011;28063;48.140;11.588;2022-10-26T14:51:18;7.05;;;2.15;;
42420;SDS011;28063;48.140;11.588;2022-10-26T14:54:03;6.78;;;2.03;;
42420;SDS011;28063;48.140;11.588;2022-10-26T14:56:41;4.35;;;1.90;;
42420;SDS011;28063;48.140;11.588;2022-10-26T14:59:17;9.25;;;2.40;;
42420;SDS011;28063;48.140;11.588;2022-10-26T15:02:00;4.95;;;2.55;;
42420;SDS011;28063;48.140;11.588;2022-10-26T15:04:39;11.10;;;3.17;;
42420;SDS011;28063;48.140;11.588;2022-10-26T15:07:07;5.32;;;2.40;;
42420;SDS011;28063;48.140;11.588;2022-10-26T15:17:40;7.68;;;2.55;;
42420;SDS011;28063;48.140;11.588;2022-10-26T15:20:13;6.70;;;2.38;;
42420;SDS011;28063;48.140;11.588;2022-10-26T15:22:42;4.97;;;1.77;;
42420;SDS011;28063;48.140;11.588;2022-10-26T15:25:19;5.88;;;2.40;;
42420;SDS011;28063;48.140;11.588;2022-10-26T15:27:47;5.55;;;2.80;;
42420;SDS011;28063;48.140;11.588;2022-10-26T15:30:16;3.55;;;2.10;;
42420;SDS011;28063;48.140;11.588;2022-10-26T15:32:44;3.83;;;1.85;;
42420;SDS011;28063;48.140;11.588;2022-10-26T15:35:19;2.42;;;1.73;;
42420;SDS011;28063;48.140;11.588;2022-10-26T15:38:12;6.40;;;2.58;;
42420;SDS011;28063;48.140;11.588;2022-10-26T15:40:40;6.97;;;3.22;;
42420;SDS011;28063;48.140;11.588;2022-10-26T15:43:08;3.92;;;2.67;;
42420;SDS011;28063;48.140;11.588;2022-10-26T15:45:36;5.93;;;3.20;;
42420;SDS011;28063;48.140;11.588;2022-10-26T15:48:23;11.70;;;2.50;;
42420;SDS011;28063;48.140;11.588;2022-10-26T15:50:54;5.35;;;2.63;;
42420;SDS011;28063;48.140;11.588;2022-10-26T15:53:23;4.78;;;1.80;;
42420;SDS011;28063;48.140;11.588;2022-10-26T15:55:53;6.68;;;2.60;;
42420;SDS011;28063;48.140;11.588;2022-10-26T15:58:22;5.15;;;2.28;;
42420;SDS011;28063;48.140;11.588;2022-10-26T16:00:48;5.43;;;2.60;;
42420;SDS011;28063;48.140;11.588;2022-10-26T16:03:24;7.95;;;2.80;;
42420;SDS011;28063;48.140;11.588;2022-10-26T16:05:52;5.85;;;2.58;;
42420;SDS011;28063;48.140;11.588;2022-10-26T16:08:21;5.68;;;2.22;;
42420;SDS011;28063;48.140;11.588;2022-10-26T16:10:47;4.65;;;2.17;;
42420;SDS011;28063;48.140;11.588;2022-10-26T16:13:15;4.30;;;2.88;;
42420;SDS011;28063;48.140;11.588;2022-10-26T16:15:41;5.50;;;2.80;;
42420;SDS011;28063;48.140;11.588;2022-10-26T16:18:07;4.43;;;2.38;;
42420;SDS011;28063;48.140;11.588;2022-10-26T16:20:33;8.10;;;3.47;;
42420;SDS011;28063;48.140;11.588;2022-10-26T16:22:58;5.25;;;2.80;;
42420;SDS011;28063;48.140;11.588;2022-10-26T16:25:30;3.30;;;2.15;;
42420;SDS011;28063;48.140;11.588;2022-10-26T16:27:57;5.88;;;3.25;;
42420;SDS011;28063;48.140;11.588;2022-10-26T16:30:23;6.05;;;2.47;;
42420;SDS011;28063;48.140;11.588;2022-10-26T16:32:49;6.28;;;2.83;;
42420;SDS011;28063;48.140;11.588;2022-10-26T16:35:14;5.82;;;2.53;;
42420;SDS011;28063;48.140;11.588;2022-10-26T16:37:40;3.85;;;2.00;;
42420;SDS011;28063;48.140;11.588;2022-10-26T16:40:07;3.50;;;2.40;;
42420;SDS011;28063;48.140;11.588;2022-10-26T16:42:33;6.20;;;2.50;;
42420;SDS011;28063;48.140;11.588;2022-10-26T16:44:59;3.95;;;2.40;;
42420;SDS011;28063;48.140;11.588;2022-10-26T16:47:25;7.07;;;2.72;;
42420;SDS011;28063;48.140;11.588;2022-10-26T16:49:51;4.90;;;2.20;;
42420;SDS011;28063;48.140;11.588;2022-10-26T16:52:17;3.90;;;2.47;;
42420;SDS011;28063;48.140;11.588;2022-10-26T16:54:42;3.47;;;1.85;;
42420;SDS011;28063;48.140;11.588;2022-10-26T16:57:08;3.78;;;2.25;;
42420;SDS011;28063;48.140;11.588;2022-10-26T16:59:35;3.45;;;1.70;;
42420;SDS011;28063;48.140;11.588;2022-10-26T17:02:00;3.42;;;2.15;;
42420;SDS011;28063;48.140;11.588;2022-10-26T17:04:26;6.00;;;2.28;;
42420;SDS011;28063;48.140;11.588;2022-10-26T17:06:51;2.70;;;2.35;;
42420;SDS011;28063;48.140;11.588;2022-10-26T17:09:17;4.88;;;2.53;;
42420;SDS011;28063;48.140;11.588;2022-10-26T17:11:43;3.72;;;2.20;;
42420;SDS011;28063;48.140;11.588;2022-10-26T17:14:08;3.60;;;2.67;;
42420;SDS011;28063;48.140;11.588;2022-10-26T17:16:34;4.72;;;2.67;;
42420;SDS011;28063;48.140;11.588;2022-10-26T17:19:00;3.33;;;2.20;;
42420;SDS011;28063;48.140;11.588;2022-10-26T17:21:27;5.10;;;2.30;;
42420;SDS011;28063;48.140;11.588;2022-10-26T17:24:00;5.53;;;2.15;;
42420;SDS011;28063;48.140;11.588;2022-10-26T17:26:26;3.60;;;2.35;;
42420;SDS011;28063;48.140;11.588;2022-10-26T17:28:53;5.47;;;2.05;;
42420;SDS011;28063;48.140;11.588;2022-10-26T17:31:20;3.15;;;2.25;;
42420;SDS011;28063;48.140;11.588;2022-10-26T17:33:47;4.38;;;2.58;;
42420;SDS011;28063;48.140;11.588;2022-10-26T17:36:17;5.78;;;2.35;;
42420;SDS011;28063;48.140;11.588;2022-10-26T17:38:46;3.97;;;2.63;;
42420;SDS011;28063;48.140;11.588;2022-10-26T17:41:15;2.30;;;1.95;;